createdAt,value
2023-03-27T00:02:09.040Z,3.30
2023-03-27T00:04:35.987Z,3.43
2023-03-27T00:07:03.977Z,2.70
2023-03-27T00:09:32.903Z,2.83
2023-03-27T00:12:01.108Z,3.20
2023-03-27T00:14:27.990Z,2.83
2023-03-27T00:16:54.876Z,3.07
2023-03-27T00:19:21.688Z,4.47
2023-03-27T00:21:48.917Z,6.50
2023-03-27T00:24:16.107Z,4.13
2023-03-27T00:26:43.473Z,3.40
2023-03-27T00:29:10.728Z,3.70
2023-03-27T00:31:38.359Z,3.20
2023-03-27T00:34:05.235Z,2.93
2023-03-27T00:36:31.869Z,2.87
2023-03-27T00:38:58.514Z,2.80
2023-03-27T00:41:26.283Z,2.80
2023-03-27T00:43:56.445Z,3.27
2023-03-27T00:46:42.556Z,3.00
2023-03-27T00:49:13.685Z,3.50
2023-03-27T00:51:42.984Z,2.97
2023-03-27T00:54:13.610Z,3.15
2023-03-27T00:56:40.469Z,3.30
2023-03-27T00:59:12.787Z,2.80
2023-03-27T01:01:40.262Z,3.40
2023-03-27T01:04:09.165Z,3.30
2023-03-27T01:06:38.718Z,3.40
2023-03-27T01:09:05.604Z,3.50
2023-03-27T01:12:00.234Z,3.53
2023-03-27T01:14:57.525Z,3.40
2023-03-27T01:17:45.468Z,3.23
2023-03-27T01:20:32.738Z,3.87
2023-03-27T01:23:36.301Z,3.40
2023-03-27T01:26:35.685Z,3.77
2023-03-27T01:29:18.385Z,3.50
2023-03-27T01:32:09.894Z,3.43
2023-03-27T01:35:26.332Z,2.80
2023-03-27T01:38:14.940Z,2.97
2023-03-27T01:41:16.025Z,3.03
2023-03-27T01:44:01.074Z,3.27
2023-03-27T01:46:36.171Z,3.30
2023-03-27T01:49:12.559Z,2.87
2023-03-27T01:51:43.999Z,3.10
2023-03-27T01:54:19.516Z,2.90
2023-03-27T01:56:54.661Z,2.60
2023-03-27T01:59:27.336Z,2.30
2023-03-27T02:02:00.978Z,2.40
2023-03-27T02:04:44.179Z,2.63
2023-03-27T02:07:15.970Z,2.60
2023-03-27T02:09:50.619Z,3.10
2023-03-27T02:12:21.858Z,3.67
2023-03-27T02:15:23.515Z,4.10
2023-03-27T02:18:05.543Z,3.70
2023-03-27T02:20:34.361Z,3.97
2023-03-27T02:23:01.306Z,4.10
2023-03-27T02:25:33.132Z,4.23
2023-03-27T02:28:18.015Z,4.00
2023-03-27T02:31:31.830Z,4.67
2023-03-27T02:34:32.365Z,4.80
2023-03-27T02:37:32.387Z,4.70
2023-03-27T02:40:14.371Z,5.00
2023-03-27T02:43:12.233Z,4.30
2023-03-27T02:45:44.617Z,4.33
2023-03-27T02:48:24.768Z,4.63
2023-03-27T02:50:59.280Z,4.70
2023-03-27T02:53:29.109Z,4.57
2023-03-27T02:56:00.294Z,4.55
2023-03-27T02:58:45.325Z,5.00
2023-03-27T03:01:16.796Z,4.60
2023-03-27T03:03:53.871Z,4.70
2023-03-27T03:06:29.736Z,4.70
2023-03-27T03:09:03.261Z,5.03
2023-03-27T03:11:30.610Z,4.87
2023-03-27T03:13:57.840Z,4.80
2023-03-27T03:16:24.710Z,4.70
2023-03-27T03:18:51.418Z,5.03
2023-03-27T03:21:18.546Z,4.60
2023-03-27T03:23:58.099Z,4.80
2023-03-27T03:26:27.250Z,4.90
2023-03-27T03:29:00.475Z,4.53
2023-03-27T03:31:44.401Z,4.70
2023-03-27T03:34:13.375Z,5.47
2023-03-27T03:36:42.221Z,5.20
2023-03-27T03:39:09.697Z,4.73
2023-03-27T03:41:36.392Z,4.80
2023-03-27T03:44:03.419Z,5.00
2023-03-27T03:46:30.115Z,4.63
2023-03-27T03:48:59.253Z,4.93
2023-03-27T03:51:26.417Z,4.30
2023-03-27T03:53:53.180Z,4.50
2023-03-27T03:56:19.919Z,4.17
2023-03-27T03:58:46.538Z,4.33
2023-03-27T04:01:13.191Z,4.07
2023-03-27T04:03:40.036Z,3.60
2023-03-27T04:06:07.762Z,5.10
2023-03-27T04:08:35.456Z,5.73
2023-03-27T04:11:02.312Z,3.80
2023-03-27T04:13:28.910Z,4.37
2023-03-27T04:15:55.737Z,3.77
2023-03-27T04:18:33.064Z,4.17
2023-03-27T04:20:59.940Z,3.83
2023-03-27T04:23:34.133Z,3.40
2023-03-27T04:26:02.165Z,4.10
2023-03-27T04:28:34.926Z,3.90
2023-03-27T04:31:06.633Z,3.83
2023-03-27T04:33:35.036Z,3.47
2023-03-27T04:36:06.084Z,3.80
2023-03-27T04:38:39.815Z,3.70
2023-03-27T04:41:07.553Z,4.10
2023-03-27T04:43:40.488Z,3.83
2023-03-27T04:46:07.913Z,3.63
2023-03-27T04:48:35.329Z,3.90
2023-03-27T04:51:02.127Z,4.17
2023-03-27T04:53:30.462Z,4.00
2023-03-27T04:55:57.412Z,4.13
2023-03-27T04:58:27.259Z,3.93
2023-03-27T05:00:56.453Z,3.60
2023-03-27T05:03:26.356Z,4.20
2023-03-27T05:05:59.534Z,4.13
2023-03-27T05:08:26.692Z,4.17
2023-03-27T05:10:53.380Z,4.37
2023-03-27T05:13:20.094Z,4.30
2023-03-27T05:15:47.022Z,4.43
2023-03-27T05:18:13.744Z,4.17
2023-03-27T05:20:40.450Z,3.97
2023-03-27T05:23:07.616Z,4.40
2023-03-27T05:25:34.437Z,4.80
2023-03-27T05:28:01.298Z,5.10
2023-03-27T05:30:28.782Z,4.70
2023-03-27T05:32:59.732Z,4.70
2023-03-27T05:35:28.697Z,5.30
2023-03-27T05:37:57.224Z,5.50
2023-03-27T05:40:25.880Z,5.50
2023-03-27T05:43:00.797Z,6.13
2023-03-27T05:45:28.336Z,5.80
2023-03-27T05:47:57.299Z,7.10
2023-03-27T05:50:27.376Z,6.93
2023-03-27T05:52:58.903Z,6.95
2023-03-27T05:55:28.009Z,6.83
2023-03-27T05:57:55.009Z,6.80
2023-03-27T06:00:26.010Z,6.53
2023-03-27T06:02:59.099Z,6.93
2023-03-27T06:05:29.357Z,7.20
2023-03-27T06:10:28.056Z,6.80
2023-03-27T06:13:01.889Z,7.00
2023-03-27T06:15:28.920Z,6.90
2023-03-27T06:17:56.142Z,6.80
2023-03-27T06:20:24.646Z,7.67
2023-03-27T06:22:54.221Z,7.17
2023-03-27T06:25:21.684Z,6.95
2023-03-27T06:27:50.202Z,7.60
2023-03-27T06:30:19.626Z,7.13
2023-03-27T06:32:55.024Z,7.45
2023-03-27T06:35:21.817Z,7.23
2023-03-27T06:37:51.423Z,7.77
2023-03-27T06:40:23.121Z,7.78
2023-03-27T06:42:50.587Z,7.57
2023-03-27T06:45:17.430Z,7.53
2023-03-27T06:47:55.289Z,8.00
2023-03-27T06:50:23.129Z,8.20
2023-03-27T06:52:49.911Z,7.93
2023-03-27T06:55:18.544Z,7.80
2023-03-27T06:57:46.927Z,7.67
2023-03-27T07:00:22.738Z,7.73
2023-03-27T07:03:01.629Z,7.43
2023-03-27T07:05:30.649Z,6.90
2023-03-27T07:07:57.572Z,7.50
2023-03-27T07:10:29.026Z,6.73
2023-03-27T07:12:56.095Z,6.73
2023-03-27T07:15:24.138Z,5.97
2023-03-27T07:17:58.933Z,6.40
2023-03-27T07:20:28.073Z,6.13
2023-03-27T07:22:56.645Z,5.57
2023-03-27T07:25:28.586Z,6.00
2023-03-27T07:27:59.830Z,5.60
2023-03-27T07:30:28.009Z,5.00
2023-03-27T07:32:54.811Z,4.73
2023-03-27T07:35:21.614Z,4.60
2023-03-27T07:37:48.275Z,4.10
2023-03-27T07:40:16.557Z,4.10
2023-03-27T07:42:45.633Z,4.03
2023-03-27T07:45:13.493Z,4.13
2023-03-27T07:47:42.949Z,4.10
2023-03-27T07:50:11.988Z,4.18
2023-03-27T07:52:40.776Z,4.50
2023-03-27T07:55:08.713Z,4.80
2023-03-27T07:57:58.062Z,4.80
2023-03-27T08:00:38.004Z,4.70
2023-03-27T08:03:10.958Z,4.63
2023-03-27T08:05:38.567Z,4.27
2023-03-27T08:08:05.527Z,5.10
2023-03-27T08:10:32.516Z,4.37
2023-03-27T08:12:59.281Z,4.30
2023-03-27T08:15:26.131Z,4.10
2023-03-27T08:17:55.405Z,4.10
2023-03-27T08:20:24.213Z,3.97
2023-03-27T08:22:54.217Z,4.37
2023-03-27T08:25:24.654Z,3.83
2023-03-27T08:27:51.327Z,3.87
2023-03-27T08:30:19.850Z,3.53
2023-03-27T08:32:46.718Z,3.20
2023-03-27T08:35:13.802Z,3.80
2023-03-27T08:37:41.758Z,3.63
2023-03-27T08:40:19.105Z,3.80
2023-03-27T08:42:50.089Z,4.60
2023-03-27T08:46:01.614Z,4.37
2023-03-27T08:48:42.753Z,4.90
2023-03-27T08:51:14.903Z,4.33
2023-03-27T08:54:04.750Z,4.50
2023-03-27T08:56:31.514Z,4.30
2023-03-27T08:58:58.234Z,4.60
2023-03-27T09:01:54.022Z,4.97
2023-03-27T09:04:32.059Z,4.73
2023-03-27T09:07:22.095Z,5.10
2023-03-27T09:10:05.672Z,4.65
2023-03-27T09:13:04.539Z,4.80
2023-03-27T09:15:46.164Z,5.10
2023-03-27T09:18:23.858Z,5.63
2023-03-27T09:21:10.892Z,5.93
2023-03-27T09:23:42.307Z,6.10
2023-03-27T09:26:36.114Z,6.83
2023-03-27T09:29:20.672Z,6.90
2023-03-27T09:31:50.475Z,7.37
2023-03-27T09:34:26.862Z,7.80
2023-03-27T09:36:54.615Z,7.90
2023-03-27T09:39:28.472Z,7.83
2023-03-27T09:41:59.807Z,6.97
2023-03-27T09:44:30.414Z,7.20
2023-03-27T09:47:04.545Z,6.53
2023-03-27T09:49:31.761Z,6.10
2023-03-27T09:52:00.326Z,6.40
2023-03-27T09:54:29.148Z,6.50
2023-03-27T09:57:12.742Z,6.53
2023-03-27T10:00:00.357Z,7.20
2023-03-27T10:02:29.825Z,7.27
2023-03-27T10:05:15.097Z,8.20
2023-03-27T10:07:43.075Z,8.03
2023-03-27T10:10:12.293Z,7.90
2023-03-27T10:12:40.331Z,7.90
2023-03-27T10:15:39.046Z,8.10
2023-03-27T10:18:30.516Z,7.33
2023-03-27T10:21:01.339Z,7.03
2023-03-27T10:23:43.144Z,8.17
2023-03-27T10:26:18.560Z,8.33
2023-03-27T10:28:54.397Z,7.97
2023-03-27T10:31:25.818Z,8.10
2023-03-27T10:33:52.611Z,8.03
2023-03-27T10:36:20.559Z,7.60
2023-03-27T10:38:56.506Z,8.17
2023-03-27T10:41:28.722Z,7.93
2023-03-27T10:43:57.652Z,7.70
2023-03-27T10:46:27.293Z,8.03
2023-03-27T10:49:03.175Z,7.28
2023-03-27T10:51:51.958Z,6.97
2023-03-27T10:54:37.076Z,6.67
2023-03-27T10:57:08.495Z,6.97
2023-03-27T10:59:44.468Z,6.60
2023-03-27T11:02:23.511Z,5.43
2023-03-27T11:04:59.244Z,6.33
2023-03-27T11:07:34.032Z,5.10
2023-03-27T11:10:12.535Z,5.33
2023-03-27T11:12:42.249Z,5.50
2023-03-27T11:15:23.690Z,4.03
2023-03-27T11:18:02.394Z,4.57
2023-03-27T11:20:37.241Z,4.00
2023-03-27T11:23:15.612Z,4.00
2023-03-27T11:25:48.456Z,3.33
2023-03-27T11:28:27.903Z,3.20
2023-03-27T11:30:59.610Z,3.40
2023-03-27T11:33:57.680Z,3.30
2023-03-27T11:36:40.369Z,3.60
2023-03-27T11:39:16.241Z,2.93
2023-03-27T11:41:53.485Z,3.10
2023-03-27T11:44:21.115Z,4.30
2023-03-27T11:47:21.555Z,3.63
2023-03-27T11:50:09.555Z,3.42
2023-03-27T11:53:10.766Z,3.33
2023-03-27T11:55:59.084Z,2.87
2023-03-27T11:58:35.026Z,3.33
2023-03-27T12:01:23.935Z,3.10
2023-03-27T12:04:07.166Z,4.20
2023-03-27T12:06:46.347Z,3.20
2023-03-27T12:09:39.945Z,2.90
2023-03-27T12:12:32.866Z,3.00
2023-03-27T12:15:47.656Z,3.13
2023-03-27T12:18:36.097Z,2.90
2023-03-27T12:21:29.546Z,3.57
2023-03-27T12:24:21.319Z,3.00
2023-03-27T12:27:35.517Z,3.33
2023-03-27T12:30:23.316Z,4.17
2023-03-27T12:33:15.845Z,3.67
2023-03-27T12:35:47.909Z,10.70
2023-03-27T12:38:27.325Z,5.87
2023-03-27T12:41:03.221Z,3.93
2023-03-27T12:43:33.914Z,3.27
2023-03-27T12:46:10.187Z,3.70
2023-03-27T12:48:54.136Z,3.27
2023-03-27T12:51:38.560Z,3.83
2023-03-27T12:54:26.760Z,3.73
2023-03-27T12:57:05.920Z,2.43
2023-03-27T12:59:37.974Z,2.93
2023-03-27T13:02:04.884Z,2.57
2023-03-27T13:04:51.689Z,3.80
2023-03-27T13:07:30.496Z,2.77
2023-03-27T13:10:21.432Z,2.70
2023-03-27T13:13:23.183Z,2.83
2023-03-27T13:16:07.335Z,2.70
2023-03-27T13:19:16.059Z,2.80
2023-03-27T13:22:23.810Z,3.00
2023-03-27T13:25:16.450Z,3.00
2023-03-27T13:28:05.004Z,3.10
2023-03-27T13:30:53.428Z,3.80
2023-03-27T13:33:29.174Z,3.40
2023-03-27T13:35:58.879Z,3.07
2023-03-27T13:38:51.988Z,3.58
2023-03-27T13:41:46.392Z,3.30
2023-03-27T13:44:18.734Z,2.70
2023-03-27T13:46:57.572Z,3.00
2023-03-27T13:49:49.197Z,2.80
2023-03-27T13:52:32.540Z,3.73
2023-03-27T13:55:17.487Z,2.93
2023-03-27T13:58:21.164Z,2.90
2023-03-27T14:01:08.022Z,3.40
2023-03-27T14:03:57.888Z,4.33
2023-03-27T14:06:52.576Z,3.50
2023-03-27T14:09:27.234Z,3.27
2023-03-27T14:12:03.219Z,3.03
2023-03-27T14:15:08.014Z,3.00
2023-03-27T14:18:29.544Z,2.97
2023-03-27T14:21:02.328Z,3.03
2023-03-27T14:23:33.977Z,2.80
2023-03-27T14:26:03.892Z,3.20
2023-03-27T14:28:33.612Z,2.97
2023-03-27T14:31:06.343Z,3.33
2023-03-27T14:33:34.095Z,3.90
2023-03-27T14:36:04.162Z,3.57
2023-03-27T14:38:36.432Z,3.20
2023-03-27T14:41:06.616Z,3.20
2023-03-27T14:43:33.633Z,3.13
2023-03-27T14:46:04.748Z,4.10
2023-03-27T14:48:39.517Z,3.70
2023-03-27T14:51:10.483Z,3.60
2023-03-27T14:53:44.674Z,2.90
2023-03-27T14:56:48.146Z,3.37
2023-03-27T14:59:20.756Z,3.43
2023-03-27T15:01:50.401Z,2.80
2023-03-27T15:04:17.377Z,2.78
2023-03-27T15:06:44.075Z,2.80
2023-03-27T15:09:15.939Z,3.50
2023-03-27T15:11:48.737Z,2.90
2023-03-27T15:14:18.979Z,4.03
2023-03-27T15:16:58.468Z,3.17
2023-03-27T15:19:30.474Z,3.10
2023-03-27T15:22:04.307Z,4.07
2023-03-27T15:24:37.280Z,3.50
2023-03-27T15:27:06.005Z,3.60
2023-03-27T15:29:40.968Z,4.20
2023-03-27T15:32:12.562Z,3.10
2023-03-27T15:34:46.544Z,3.80
2023-03-27T15:37:19.366Z,3.33
2023-03-27T15:40:15.846Z,3.43
2023-03-27T15:42:53.297Z,4.10
2023-03-27T15:45:35.820Z,2.60
2023-03-27T15:48:26.235Z,2.43
2023-03-27T15:51:02.178Z,2.92
2023-03-27T15:53:37.448Z,3.20
2023-03-27T15:56:13.487Z,2.53
2023-03-27T15:58:47.295Z,3.00
2023-03-27T16:01:21.546Z,2.70
2023-03-27T16:03:50.903Z,5.60
2023-03-27T16:06:41.113Z,7.93
2023-03-27T16:09:28.604Z,4.18
2023-03-27T16:11:57.521Z,6.27
2023-03-27T16:14:30.167Z,3.80
2023-03-27T16:17:12.519Z,3.80
2023-03-27T16:20:08.218Z,3.63
2023-03-27T16:22:38.088Z,2.87
2023-03-27T16:25:10.852Z,4.05
2023-03-27T16:27:40.491Z,2.67
2023-03-27T16:30:20.354Z,3.20
2023-03-27T16:32:48.500Z,3.35
2023-03-27T16:35:15.500Z,4.20
2023-03-27T16:37:43.531Z,4.97
2023-03-27T16:40:25.709Z,2.87
2023-03-27T16:42:52.574Z,3.00
2023-03-27T16:45:21.884Z,3.20
2023-03-27T16:47:53.002Z,4.10
2023-03-27T16:50:23.019Z,5.80
2023-03-27T16:52:50.115Z,5.30
2023-03-27T16:55:17.500Z,5.50
2023-03-27T16:57:46.410Z,4.70
2023-03-27T17:00:15.279Z,5.37
2023-03-27T17:02:44.727Z,3.50
2023-03-27T17:05:12.143Z,3.80
2023-03-27T17:07:40.985Z,2.43
2023-03-27T17:10:08.795Z,3.00
2023-03-27T17:12:35.847Z,3.20
2023-03-27T17:15:03.958Z,2.77
2023-03-27T17:17:31.202Z,2.70
2023-03-27T17:19:57.982Z,3.17
2023-03-27T17:22:26.706Z,3.13
2023-03-27T17:24:57.329Z,3.33
2023-03-27T17:27:26.908Z,3.43
2023-03-27T17:29:56.514Z,4.37
2023-03-27T17:32:24.901Z,4.10
2023-03-27T17:34:52.407Z,3.63
2023-03-27T17:37:21.197Z,2.97
2023-03-27T17:39:48.729Z,3.10
2023-03-27T17:42:16.016Z,3.20
2023-03-27T17:44:45.244Z,2.90
2023-03-27T17:47:12.858Z,3.53
2023-03-27T17:49:40.083Z,3.23
2023-03-27T17:52:11.464Z,3.20
2023-03-27T17:54:38.627Z,3.53
2023-03-27T17:57:05.760Z,3.20
2023-03-27T17:59:32.743Z,3.50
2023-03-27T18:01:59.818Z,3.40
2023-03-27T18:04:27.772Z,3.80
2023-03-27T18:06:54.705Z,4.40
2023-03-27T18:09:22.699Z,4.50
2023-03-27T18:11:49.371Z,4.23
2023-03-27T18:14:16.401Z,3.53
2023-03-27T18:16:43.512Z,4.70
2023-03-27T18:19:12.103Z,5.03
2023-03-27T18:21:39.801Z,4.60
2023-03-27T18:24:07.938Z,4.30
2023-03-27T18:26:35.448Z,4.80
2023-03-27T18:29:02.389Z,4.33
2023-03-27T18:31:29.692Z,3.80
2023-03-27T18:33:56.509Z,4.07
2023-03-27T18:36:23.780Z,5.07
2023-03-27T18:38:52.158Z,4.87
2023-03-27T18:41:18.936Z,4.83
2023-03-27T18:43:46.408Z,7.77
2023-03-27T18:46:17.184Z,7.37
2023-03-27T18:48:45.719Z,6.57
2023-03-27T18:51:13.675Z,4.50
2023-03-27T18:53:41.278Z,4.13
2023-03-27T18:56:08.596Z,5.23
2023-03-27T18:58:36.837Z,4.90
2023-03-27T19:01:11.787Z,7.20
2023-03-27T19:03:39.278Z,6.83
2023-03-27T19:06:08.119Z,6.30
2023-03-27T19:08:37.919Z,7.63
2023-03-27T19:11:06.224Z,6.22
2023-03-27T19:13:32.969Z,6.67
2023-03-27T19:16:00.435Z,5.37
2023-03-27T19:18:30.364Z,5.47
2023-03-27T19:21:00.915Z,7.03
2023-03-27T19:23:28.179Z,7.53
2023-03-27T19:25:55.615Z,7.83
2023-03-27T19:28:22.398Z,5.63
2023-03-27T19:30:51.512Z,5.50
2023-03-27T19:33:18.296Z,5.30
2023-03-27T19:35:45.028Z,7.07
2023-03-27T19:38:11.930Z,6.43
2023-03-27T19:40:38.720Z,8.87
2023-03-27T19:43:05.458Z,6.63
2023-03-27T19:45:32.250Z,6.17
2023-03-27T19:47:58.925Z,8.17
2023-03-27T19:50:25.605Z,9.77
2023-03-27T19:53:05.254Z,9.23
2023-03-27T19:55:34.666Z,9.97
2023-03-27T19:58:01.566Z,7.37
2023-03-27T20:00:30.158Z,6.03
2023-03-27T20:02:58.548Z,5.53
2023-03-27T20:05:27.083Z,6.20
2023-03-27T20:07:53.736Z,6.80
2023-03-27T20:10:22.244Z,6.40
2023-03-27T20:12:48.974Z,5.73
2023-03-27T20:15:15.799Z,7.10
2023-03-27T20:17:43.263Z,7.93
2023-03-27T20:20:11.454Z,7.67
2023-03-27T20:22:50.155Z,7.03
2023-03-27T20:25:26.026Z,7.43
2023-03-27T20:27:52.774Z,8.20
2023-03-27T20:30:21.471Z,9.87
2023-03-27T20:32:48.332Z,19.30
2023-03-27T20:35:23.443Z,23.23
2023-03-27T20:37:56.609Z,14.00
2023-03-27T20:40:24.537Z,11.73
2023-03-27T20:43:03.700Z,12.10
2023-03-27T20:45:31.273Z,12.80
2023-03-27T20:48:03.516Z,17.73
2023-03-27T20:50:31.865Z,13.73
2023-03-27T20:52:58.513Z,20.83
2023-03-27T20:55:33.572Z,18.23
2023-03-27T20:58:06.718Z,17.77
2023-03-27T21:00:33.857Z,14.53
2023-03-27T21:03:00.729Z,13.03
2023-03-27T21:05:27.901Z,19.97
2023-03-27T21:07:54.750Z,27.33
2023-03-27T21:10:21.489Z,19.63
2023-03-27T21:12:51.235Z,17.20
2023-03-27T21:15:18.150Z,18.87
2023-03-27T21:17:44.902Z,13.63
2023-03-27T21:20:13.910Z,20.80
2023-03-27T21:22:40.555Z,16.07
2023-03-27T21:25:07.607Z,17.10
2023-03-27T21:27:34.397Z,15.93
2023-03-27T21:30:03.317Z,19.70
2023-03-27T21:32:30.191Z,19.87
2023-03-27T21:34:57.123Z,16.73
2023-03-27T21:37:23.789Z,18.37
2023-03-27T21:39:50.473Z,18.77
2023-03-27T21:42:21.395Z,15.43
2023-03-27T21:44:53.911Z,18.20
2023-03-27T21:47:26.121Z,16.50
2023-03-27T21:49:58.630Z,13.63
2023-03-27T21:52:25.427Z,11.97
2023-03-27T21:55:02.527Z,10.97
2023-03-27T21:57:30.054Z,12.07
2023-03-27T21:59:57.895Z,15.00
2023-03-27T22:02:24.627Z,11.53
2023-03-27T22:04:51.568Z,9.50
2023-03-27T22:07:18.267Z,7.63
2023-03-27T22:09:45.164Z,6.93
2023-03-27T22:12:12.221Z,6.20
2023-03-27T22:14:39.247Z,6.10
2023-03-27T22:17:07.042Z,6.90
2023-03-27T22:19:33.870Z,7.23
2023-03-27T22:22:01.594Z,7.87
2023-03-27T22:24:28.864Z,6.73
2023-03-27T22:26:56.040Z,6.70
2023-03-27T22:29:23.067Z,7.60
2023-03-27T22:31:50.196Z,8.07
2023-03-27T22:34:17.032Z,8.03
2023-03-27T22:36:44.367Z,8.10
2023-03-27T22:39:11.146Z,7.97
2023-03-27T22:41:37.945Z,8.70
2023-03-27T22:44:05.571Z,8.33
2023-03-27T22:46:32.367Z,8.47
2023-03-27T22:48:59.408Z,7.67
2023-03-27T22:51:31.118Z,7.00
2023-03-27T22:53:58.314Z,7.90
2023-03-27T22:56:25.171Z,7.97
2023-03-27T22:58:52.089Z,10.30
2023-03-27T23:01:18.814Z,9.13
2023-03-27T23:03:45.771Z,10.53
2023-03-27T23:06:21.622Z,9.23
2023-03-27T23:08:50.011Z,8.90
2023-03-27T23:11:18.125Z,8.90
2023-03-27T23:13:45.390Z,7.43
2023-03-27T23:16:13.165Z,8.57
2023-03-27T23:18:39.913Z,11.07
2023-03-27T23:21:11.427Z,10.47
2023-03-27T23:23:40.419Z,8.07
2023-03-27T23:26:08.717Z,8.33
2023-03-27T23:28:38.837Z,10.77
2023-03-27T23:31:24.583Z,11.20
2023-03-27T23:33:51.748Z,9.20
2023-03-27T23:36:21.955Z,8.30
2023-03-27T23:38:51.707Z,9.32
2023-03-27T23:41:19.110Z,9.13
2023-03-27T23:43:46.244Z,7.77
2023-03-27T23:46:13.736Z,9.17
2023-03-27T23:48:42.309Z,8.60
2023-03-27T23:51:09.869Z,10.63
2023-03-27T23:53:37.252Z,9.57
2023-03-27T23:56:04.334Z,9.60
2023-03-27T23:58:34.076Z,7.87
